sensor_id;sensor_type;location;lat;lon;timestamp;pressure;altitude;pressure_sealevel;temperature;humidity
39487;BME280;25173;50.430;18.926;2023-04-09T00:02:09;98883.41;;;10.97;62.67
39487;BME280;25173;50.430;18.926;2023-04-09T00:05:10;98887.13;;;10.86;62.69
39487;BME280;25173;50.430;18.926;2023-04-09T00:08:11;98881.78;;;10.69;62.67
39487;BME280;25173;50.430;18.926;2023-04-09T00:11:11;98879.72;;;10.55;63.19
39487;BME280;25173;50.430;18.926;2023-04-09T00:14:12;98879.63;;;10.44;63.16
39487;BME280;25173;50.430;18.926;2023-04-09T00:17:12;98874.69;;;10.41;63.31
39487;BME280;25173;50.430;18.926;2023-04-09T00:20:13;98877.34;;;10.36;63.29
39487;BME280;25173;50.430;18.926;2023-04-09T00:23:14;98883.63;;;10.37;63.65
39487;BME280;25173;50.430;18.926;2023-04-09T00:26:14;98886.06;;;10.38;63.76
39487;BME280;25173;50.430;18.926;2023-04-09T00:29:15;98886.16;;;10.43;63.80
39487;BME280;25173;50.430;18.926;2023-04-09T00:32:16;98879.94;;;10.48;63.66
39487;BME280;25173;50.430;18.926;2023-04-09T00:35:17;98873.16;;;10.50;63.52
39487;BME280;25173;50.430;18.926;2023-04-09T00:38:18;98869.59;;;10.50;63.36
39487;BME280;25173;50.430;18.926;2023-04-09T00:41:19;98873.59;;;10.42;63.30
39487;BME280;25173;50.430;18.926;2023-04-09T00:44:20;98876.19;;;10.32;63.46
39487;BME280;25173;50.430;18.926;2023-04-09T00:47:20;98875.09;;;10.28;63.65
39487;BME280;25173;50.430;18.926;2023-04-09T00:50:21;98879.38;;;10.24;63.78
39487;BME280;25173;50.430;18.926;2023-04-09T00:53:22;98881.03;;;10.25;63.96
39487;BME280;25173;50.430;18.926;2023-04-09T00:56:23;98885.78;;;10.35;64.03
39487;BME280;25173;50.430;18.926;2023-04-09T00:59:24;98886.69;;;10.45;63.89
39487;BME280;25173;50.430;18.926;2023-04-09T01:02:25;98892.75;;;10.52;63.76
39487;BME280;25173;50.430;18.926;2023-04-09T01:06:07;98897.50;;;10.62;64.11
39487;BME280;25173;50.430;18.926;2023-04-09T01:09:36;98894.31;;;10.70;63.57
39487;BME280;25173;50.430;18.926;2023-04-09T01:15:53;98893.03;;;10.78;63.41
39487;BME280;25173;50.430;18.926;2023-04-09T01:18:58;98897.47;;;10.84;63.37
39487;BME280;25173;50.430;18.926;2023-04-09T01:22:01;98894.72;;;10.84;63.43
39487;BME280;25173;50.430;18.926;2023-04-09T01:25:18;98898.50;;;10.78;63.26
39487;BME280;25173;50.430;18.926;2023-04-09T01:31:34;98890.34;;;10.83;63.30
39487;BME280;25173;50.430;18.926;2023-04-09T01:34:36;98889.19;;;10.74;63.03
39487;BME280;25173;50.430;18.926;2023-04-09T01:37:38;98878.22;;;10.69;63.32
39487;BME280;25173;50.430;18.926;2023-04-09T01:40:40;98892.19;;;10.72;63.51
39487;BME280;25173;50.430;18.926;2023-04-09T01:43:42;98895.25;;;10.81;63.45
39487;BME280;25173;50.430;18.926;2023-04-09T01:46:45;98893.97;;;10.88;63.53
39487;BME280;25173;50.430;18.926;2023-04-09T01:49:46;98901.63;;;10.92;63.33
39487;BME280;25173;50.430;18.926;2023-04-09T01:52:47;98899.47;;;10.94;63.43
39487;BME280;25173;50.430;18.926;2023-04-09T01:55:48;98894.63;;;11.01;63.47
39487;BME280;25173;50.430;18.926;2023-04-09T01:58:48;98899.03;;;11.07;63.24
39487;BME280;25173;50.430;18.926;2023-04-09T02:01:53;98896.66;;;11.15;63.34
39487;BME280;25173;50.430;18.926;2023-04-09T02:04:56;98896.94;;;11.19;63.23
39487;BME280;25173;50.430;18.926;2023-04-09T02:08:00;98894.84;;;11.26;63.16
39487;BME280;25173;50.430;18.926;2023-04-09T02:11:04;98901.66;;;11.28;63.04
39487;BME280;25173;50.430;18.926;2023-04-09T02:14:07;98893.75;;;11.27;62.94
39487;BME280;25173;50.430;18.926;2023-04-09T02:17:11;98898.66;;;11.25;63.05
39487;BME280;25173;50.430;18.926;2023-04-09T02:20:16;98896.19;;;11.23;62.96
39487;BME280;25173;50.430;18.926;2023-04-09T02:23:17;98895.00;;;11.14;62.66
39487;BME280;25173;50.430;18.926;2023-04-09T02:26:18;98890.97;;;10.90;62.73
39487;BME280;25173;50.430;18.926;2023-04-09T02:29:19;98883.63;;;10.64;62.95
39487;BME280;25173;50.430;18.926;2023-04-09T02:32:20;98898.63;;;10.39;63.20
39487;BME280;25173;50.430;18.926;2023-04-09T02:35:20;98890.06;;;10.31;63.66
39487;BME280;25173;50.430;18.926;2023-04-09T02:38:21;98885.41;;;10.26;63.72
39487;BME280;25173;50.430;18.926;2023-04-09T02:41:22;98885.88;;;10.23;63.75
39487;BME280;25173;50.430;18.926;2023-04-09T02:44:24;98888.63;;;10.23;63.80
39487;BME280;25173;50.430;18.926;2023-04-09T02:47:24;98888.31;;;10.20;63.80
39487;BME280;25173;50.430;18.926;2023-04-09T02:50:26;98886.34;;;10.15;63.71
39487;BME280;25173;50.430;18.926;2023-04-09T02:53:27;98881.69;;;10.16;63.88
39487;BME280;25173;50.430;18.926;2023-04-09T02:56:27;98885.84;;;10.18;63.97
39487;BME280;25173;50.430;18.926;2023-04-09T02:59:28;98892.94;;;10.19;63.96
39487;BME280;25173;50.430;18.926;2023-04-09T03:02:28;98890.50;;;10.23;63.95
39487;BME280;25173;50.430;18.926;2023-04-09T03:05:29;98891.88;;;10.20;63.95
39487;BME280;25173;50.430;18.926;2023-04-09T03:08:30;98892.28;;;10.12;63.93
39487;BME280;25173;50.430;18.926;2023-04-09T03:11:30;98886.38;;;9.98;64.38
39487;BME280;25173;50.430;18.926;2023-04-09T03:14:31;98886.56;;;9.92;64.20
39487;BME280;25173;50.430;18.926;2023-04-09T03:17:31;98890.22;;;9.81;64.39
39487;BME280;25173;50.430;18.926;2023-04-09T03:20:32;98892.72;;;9.65;64.75
39487;BME280;25173;50.430;18.926;2023-04-09T03:23:33;98889.28;;;9.53;65.04
39487;BME280;25173;50.430;18.926;2023-04-09T03:26:35;98885.34;;;9.44;65.29
39487;BME280;25173;50.430;18.926;2023-04-09T03:29:37;98886.81;;;9.35;65.52
39487;BME280;25173;50.430;18.926;2023-04-09T03:32:38;98879.91;;;9.27;65.80
39487;BME280;25173;50.430;18.926;2023-04-09T03:35:39;98880.00;;;9.16;66.11
39487;BME280;25173;50.430;18.926;2023-04-09T03:38:41;98867.66;;;9.08;66.26
39487;BME280;25173;50.430;18.926;2023-04-09T03:41:53;98866.47;;;9.04;66.36
39487;BME280;25173;50.430;18.926;2023-04-09T03:44:55;98865.75;;;9.09;66.78
39487;BME280;25173;50.430;18.926;2023-04-09T03:48:04;98864.47;;;9.11;66.75
39487;BME280;25173;50.430;18.926;2023-04-09T03:51:05;98870.69;;;9.12;66.76
39487;BME280;25173;50.430;18.926;2023-04-09T03:54:11;98876.13;;;9.12;66.81
39487;BME280;25173;50.430;18.926;2023-04-09T03:57:14;98881.00;;;9.10;66.77
39487;BME280;25173;50.430;18.926;2023-04-09T04:00:17;98885.38;;;9.11;66.76
39487;BME280;25173;50.430;18.926;2023-04-09T04:03:36;98890.06;;;9.15;66.61
39487;BME280;25173;50.430;18.926;2023-04-09T04:06:47;98888.81;;;9.23;66.73
39487;BME280;25173;50.430;18.926;2023-04-09T04:09:57;98880.25;;;9.31;66.58
39487;BME280;25173;50.430;18.926;2023-04-09T04:12:57;98884.63;;;9.32;66.41
39487;BME280;25173;50.430;18.926;2023-04-09T04:16:08;98883.78;;;9.31;66.39
39487;BME280;25173;50.430;18.926;2023-04-09T04:19:10;98881.91;;;9.32;66.61
39487;BME280;25173;50.430;18.926;2023-04-09T04:22:17;98894.25;;;9.40;66.53
39487;BME280;25173;50.430;18.926;2023-04-09T04:25:22;98899.53;;;9.46;66.54
39487;BME280;25173;50.430;18.926;2023-04-09T04:28:24;98892.06;;;9.58;66.51
39487;BME280;25173;50.430;18.926;2023-04-09T04:31:25;98893.53;;;9.66;66.17
39487;BME280;25173;50.430;18.926;2023-04-09T04:34:29;98897.78;;;9.79;66.21
39487;BME280;25173;50.430;18.926;2023-04-09T04:37:56;98893.66;;;9.93;66.02
39487;BME280;25173;50.430;18.926;2023-04-09T04:41:01;98894.84;;;10.02;66.04
39487;BME280;25173;50.430;18.926;2023-04-09T04:44:02;98898.78;;;10.11;65.99
39487;BME280;25173;50.430;18.926;2023-04-09T04:47:03;98895.16;;;10.22;65.75
39487;BME280;25173;50.430;18.926;2023-04-09T04:50:04;98902.59;;;10.32;65.61
39487;BME280;25173;50.430;18.926;2023-04-09T04:53:14;98898.13;;;10.42;65.63
39487;BME280;25173;50.430;18.926;2023-04-09T04:56:21;98897.13;;;10.54;65.36
39487;BME280;25173;50.430;18.926;2023-04-09T04:59:32;98890.47;;;10.66;65.20
39487;BME280;25173;50.430;18.926;2023-04-09T05:02:36;98892.47;;;10.76;64.98
39487;BME280;25173;50.430;18.926;2023-04-09T05:05:59;98890.63;;;10.81;64.77
39487;BME280;25173;50.430;18.926;2023-04-09T05:09:04;98886.19;;;10.75;64.75
39487;BME280;25173;50.430;18.926;2023-04-09T05:12:13;98885.66;;;10.73;64.91
39487;BME280;25173;50.430;18.926;2023-04-09T05:15:17;98894.81;;;10.67;65.02
39487;BME280;25173;50.430;18.926;2023-04-09T05:18:19;98898.19;;;10.74;65.26
39487;BME280;25173;50.430;18.926;2023-04-09T05:21:20;98903.47;;;10.86;65.23
39487;BME280;25173;50.430;18.926;2023-04-09T05:24:22;98912.63;;;11.02;65.38
39487;BME280;25173;50.430;18.926;2023-04-09T05:27:23;98905.44;;;11.22;65.26
39487;BME280;25173;50.430;18.926;2023-04-09T05:30:31;98901.78;;;11.44;64.76
39487;BME280;25173;50.430;18.926;2023-04-09T05:33:36;98906.75;;;11.52;64.33
39487;BME280;25173;50.430;18.926;2023-04-09T05:36:38;98910.88;;;11.54;64.18
39487;BME280;25173;50.430;18.926;2023-04-09T05:39:40;98909.75;;;11.50;64.17
39487;BME280;25173;50.430;18.926;2023-04-09T05:42:40;98916.03;;;11.51;64.27
39487;BME280;25173;50.430;18.926;2023-04-09T05:45:47;98926.94;;;11.51;64.07
39487;BME280;25173;50.430;18.926;2023-04-09T05:48:48;98918.28;;;11.59;64.13
39487;BME280;25173;50.430;18.926;2023-04-09T05:51:50;98921.00;;;11.59;63.93
39487;BME280;25173;50.430;18.926;2023-04-09T05:54:56;98920.19;;;11.63;64.01
39487;BME280;25173;50.430;18.926;2023-04-09T05:58:04;98922.16;;;11.68;63.82
39487;BME280;25173;50.430;18.926;2023-04-09T06:01:06;98921.00;;;11.59;63.68
39487;BME280;25173;50.430;18.926;2023-04-09T06:04:06;98924.88;;;11.63;64.20
39487;BME280;25173;50.430;18.926;2023-04-09T06:07:07;98924.34;;;11.71;63.93
39487;BME280;25173;50.430;18.926;2023-04-09T06:10:09;98926.81;;;11.73;63.91
39487;BME280;25173;50.430;18.926;2023-04-09T06:13:10;98927.06;;;11.71;64.06
39487;BME280;25173;50.430;18.926;2023-04-09T06:16:10;98936.88;;;11.62;64.16
39487;BME280;25173;50.430;18.926;2023-04-09T06:19:11;98942.84;;;11.64;63.98
39487;BME280;25173;50.430;18.926;2023-04-09T06:22:12;98931.75;;;11.71;64.41
39487;BME280;25173;50.430;18.926;2023-04-09T06:25:12;98939.38;;;11.74;64.40
39487;BME280;25173;50.430;18.926;2023-04-09T06:28:13;98939.66;;;11.72;64.33
39487;BME280;25173;50.430;18.926;2023-04-09T06:31:13;98938.91;;;11.77;64.71
39487;BME280;25173;50.430;18.926;2023-04-09T06:34:14;98943.34;;;11.88;64.73
39487;BME280;25173;50.430;18.926;2023-04-09T06:37:14;98942.59;;;11.97;64.17
39487;BME280;25173;50.430;18.926;2023-04-09T06:40:15;98947.47;;;11.95;64.14
39487;BME280;25173;50.430;18.926;2023-04-09T06:43:16;98951.84;;;11.96;64.13
39487;BME280;25173;50.430;18.926;2023-04-09T06:46:24;98949.13;;;12.01;64.00
39487;BME280;25173;50.430;18.926;2023-04-09T06:49:24;98963.09;;;12.00;63.90
39487;BME280;25173;50.430;18.926;2023-04-09T06:52:25;98959.47;;;11.94;64.03
39487;BME280;25173;50.430;18.926;2023-04-09T06:55:26;98962.50;;;11.93;64.06
39487;BME280;25173;50.430;18.926;2023-04-09T06:58:26;98966.91;;;11.99;64.08
39487;BME280;25173;50.430;18.926;2023-04-09T07:01:28;98963.94;;;12.05;64.06
39487;BME280;25173;50.430;18.926;2023-04-09T07:04:38;98969.38;;;12.05;64.07
39487;BME280;25173;50.430;18.926;2023-04-09T07:07:52;98959.63;;;12.20;64.09
39487;BME280;25173;50.430;18.926;2023-04-09T07:10:59;98964.94;;;12.41;64.05
39487;BME280;25173;50.430;18.926;2023-04-09T07:14:00;98959.22;;;12.48;63.83
39487;BME280;25173;50.430;18.926;2023-04-09T07:17:01;98966.41;;;12.64;63.84
39487;BME280;25173;50.430;18.926;2023-04-09T07:20:01;98967.00;;;12.81;63.45
39487;BME280;25173;50.430;18.926;2023-04-09T07:23:03;98969.75;;;12.87;62.87
39487;BME280;25173;50.430;18.926;2023-04-09T07:26:04;98968.41;;;12.99;63.11
39487;BME280;25173;50.430;18.926;2023-04-09T07:29:05;98968.19;;;13.11;62.81
39487;BME280;25173;50.430;18.926;2023-04-09T07:32:05;98971.50;;;13.18;62.46
39487;BME280;25173;50.430;18.926;2023-04-09T07:35:07;98973.41;;;13.28;62.22
39487;BME280;25173;50.430;18.926;2023-04-09T07:38:08;98981.38;;;13.39;62.25
39487;BME280;25173;50.430;18.926;2023-04-09T07:41:10;98978.91;;;13.58;61.94
39487;BME280;25173;50.430;18.926;2023-04-09T07:44:10;98970.72;;;13.63;61.88
39487;BME280;25173;50.430;18.926;2023-04-09T07:47:11;98976.44;;;13.82;61.75
39487;BME280;25173;50.430;18.926;2023-04-09T07:50:12;98971.19;;;14.00;61.48
39487;BME280;25173;50.430;18.926;2023-04-09T07:53:12;98979.69;;;14.14;61.27
39487;BME280;25173;50.430;18.926;2023-04-09T07:56:13;98980.78;;;14.08;60.90
39487;BME280;25173;50.430;18.926;2023-04-09T07:59:14;98981.31;;;14.10;60.75
39487;BME280;25173;50.430;18.926;2023-04-09T08:02:15;98983.53;;;14.13;60.84
39487;BME280;25173;50.430;18.926;2023-04-09T08:05:15;98982.94;;;14.26;60.62
39487;BME280;25173;50.430;18.926;2023-04-09T08:08:16;98980.47;;;14.35;60.26
39487;BME280;25173;50.430;18.926;2023-04-09T08:11:16;98984.59;;;14.43;60.56
39487;BME280;25173;50.430;18.926;2023-04-09T08:14:21;98990.84;;;14.53;60.15
39487;BME280;25173;50.430;18.926;2023-04-09T08:17:22;98989.13;;;14.72;60.04
39487;BME280;25173;50.430;18.926;2023-04-09T08:20:22;98989.59;;;14.90;60.26
39487;BME280;25173;50.430;18.926;2023-04-09T08:23:23;98984.00;;;15.10;59.86
39487;BME280;25173;50.430;18.926;2023-04-09T08:26:23;98989.63;;;15.29;59.63
39487;BME280;25173;50.430;18.926;2023-04-09T08:29:25;98988.44;;;15.45;59.10
39487;BME280;25173;50.430;18.926;2023-04-09T08:32:26;98990.63;;;15.48;58.58
39487;BME280;25173;50.430;18.926;2023-04-09T08:35:29;98987.41;;;15.36;58.16
39487;BME280;25173;50.430;18.926;2023-04-09T08:38:30;98986.94;;;15.24;58.16
39487;BME280;25173;50.430;18.926;2023-04-09T08:41:31;98984.75;;;15.21;58.15
39487;BME280;25173;50.430;18.926;2023-04-09T08:44:31;98984.75;;;15.21;58.21
39487;BME280;25173;50.430;18.926;2023-04-09T08:47:32;98988.50;;;15.35;58.63
39487;BME280;25173;50.430;18.926;2023-04-09T08:50:36;98990.06;;;15.56;58.18
39487;BME280;25173;50.430;18.926;2023-04-09T08:53:37;98991.22;;;15.79;57.80
39487;BME280;25173;50.430;18.926;2023-04-09T08:56:38;98985.91;;;15.93;57.41
39487;BME280;25173;50.430;18.926;2023-04-09T08:59:39;98990.72;;;16.06;57.35
39487;BME280;25173;50.430;18.926;2023-04-09T09:02:59;98995.66;;;16.33;56.63
39487;BME280;25173;50.430;18.926;2023-04-09T09:06:00;98993.66;;;16.38;56.88
39487;BME280;25173;50.430;18.926;2023-04-09T09:09:03;99005.91;;;16.51;56.93
39487;BME280;25173;50.430;18.926;2023-04-09T09:12:04;98999.78;;;16.59;56.72
39487;BME280;25173;50.430;18.926;2023-04-09T09:15:34;99006.94;;;16.55;55.48
39487;BME280;25173;50.430;18.926;2023-04-09T09:18:42;98999.88;;;16.49;56.32
39487;BME280;25173;50.430;18.926;2023-04-09T09:22:03;99002.09;;;16.47;56.25
39487;BME280;25173;50.430;18.926;2023-04-09T09:25:11;98996.50;;;16.57;56.14
39487;BME280;25173;50.430;18.926;2023-04-09T09:28:12;98997.53;;;16.66;56.46
39487;BME280;25173;50.430;18.926;2023-04-09T09:31:17;98998.28;;;16.72;56.32
39487;BME280;25173;50.430;18.926;2023-04-09T09:34:22;99003.78;;;16.72;55.75
39487;BME280;25173;50.430;18.926;2023-04-09T09:37:59;98999.31;;;16.76;55.26
39487;BME280;25173;50.430;18.926;2023-04-09T09:41:15;99000.00;;;16.86;55.01
39487;BME280;25173;50.430;18.926;2023-04-09T09:44:32;98991.03;;;16.99;55.48
39487;BME280;25173;50.430;18.926;2023-04-09T09:47:33;98997.16;;;17.15;55.74
39487;BME280;25173;50.430;18.926;2023-04-09T09:50:34;98988.09;;;17.33;55.24
39487;BME280;25173;50.430;18.926;2023-04-09T09:53:36;98989.84;;;17.43;54.58
39487;BME280;25173;50.430;18.926;2023-04-09T09:56:38;98991.19;;;17.45;54.07
39487;BME280;25173;50.430;18.926;2023-04-09T10:00:02;98983.97;;;17.50;52.98
39487;BME280;25173;50.430;18.926;2023-04-09T10:03:13;98983.13;;;17.49;54.06
39487;BME280;25173;50.430;18.926;2023-04-09T10:06:15;98987.78;;;17.54;54.00
39487;BME280;25173;50.430;18.926;2023-04-09T10:09:16;98987.38;;;17.60;53.63
39487;BME280;25173;50.430;18.926;2023-04-09T10:12:20;98981.88;;;17.79;53.97
39487;BME280;25173;50.430;18.926;2023-04-09T10:15:23;98983.88;;;17.92;53.45
39487;BME280;25173;50.430;18.926;2023-04-09T10:18:24;98977.03;;;18.03;53.17
39487;BME280;25173;50.430;18.926;2023-04-09T10:21:53;98978.59;;;18.09;52.70
39487;BME280;25173;50.430;18.926;2023-04-09T10:24:53;98974.63;;;18.15;52.86
39487;BME280;25173;50.430;18.926;2023-04-09T10:27:59;98982.28;;;18.18;51.82
39487;BME280;25173;50.430;18.926;2023-04-09T10:31:00;98980.31;;;18.05;52.01
39487;BME280;25173;50.430;18.926;2023-04-09T10:34:05;98983.34;;;17.90;52.53
39487;BME280;25173;50.430;18.926;2023-04-09T10:37:19;98979.94;;;17.79;52.05
39487;BME280;25173;50.430;18.926;2023-04-09T10:40:20;98970.22;;;17.68;52.34
39487;BME280;25173;50.430;18.926;2023-04-09T10:43:21;98977.19;;;17.61;52.53
39487;BME280;25173;50.430;18.926;2023-04-09T10:49:26;98979.13;;;17.41;52.00
39487;BME280;25173;50.430;18.926;2023-04-09T10:52:30;98982.19;;;17.40;52.51
39487;BME280;25173;50.430;18.926;2023-04-09T10:55:41;98982.63;;;17.28;51.84
39487;BME280;25173;50.430;18.926;2023-04-09T10:58:47;98979.53;;;17.16;52.08
39487;BME280;25173;50.430;18.926;2023-04-09T11:01:53;98981.81;;;17.09;51.88
39487;BME280;25173;50.430;18.926;2023-04-09T11:05:26;98968.81;;;16.96;51.63
39487;BME280;25173;50.430;18.926;2023-04-09T11:08:32;98972.78;;;16.85;52.25
39487;BME280;25173;50.430;18.926;2023-04-09T11:11:33;98970.47;;;16.73;52.12
39487;BME280;25173;50.430;18.926;2023-04-09T11:14:34;98971.59;;;16.72;52.51
39487;BME280;25173;50.430;18.926;2023-04-09T11:17:35;98967.06;;;16.81;52.76
39487;BME280;25173;50.430;18.926;2023-04-09T11:20:37;98974.59;;;16.94;52.36
39487;BME280;25173;50.430;18.926;2023-04-09T11:23:38;98973.66;;;17.04;52.59
39487;BME280;25173;50.430;18.926;2023-04-09T11:26:39;98967.44;;;17.12;52.50
39487;BME280;25173;50.430;18.926;2023-04-09T11:29:39;98964.94;;;17.16;51.59
39487;BME280;25173;50.430;18.926;2023-04-09T11:32:41;98971.94;;;17.08;51.31
39487;BME280;25173;50.430;18.926;2023-04-09T11:35:42;98969.16;;;17.08;51.37
39487;BME280;25173;50.430;18.926;2023-04-09T11:38:43;98972.38;;;17.15;51.75
39487;BME280;25173;50.430;18.926;2023-04-09T11:41:43;98970.06;;;17.22;51.86
39487;BME280;25173;50.430;18.926;2023-04-09T11:44:44;98973.56;;;17.28;51.82
39487;BME280;25173;50.430;18.926;2023-04-09T11:47:46;98965.28;;;17.28;51.68
39487;BME280;25173;50.430;18.926;2023-04-09T11:50:46;98972.91;;;17.17;51.51
39487;BME280;25173;50.430;18.926;2023-04-09T11:53:48;98979.22;;;17.18;50.95
39487;BME280;25173;50.430;18.926;2023-04-09T11:56:49;98976.91;;;17.25;50.72
39487;BME280;25173;50.430;18.926;2023-04-09T11:59:55;98976.16;;;17.38;50.92
39487;BME280;25173;50.430;18.926;2023-04-09T12:03:03;98979.38;;;17.45;49.94
39487;BME280;25173;50.430;18.926;2023-04-09T12:06:05;98971.84;;;17.51;50.55
39487;BME280;25173;50.430;18.926;2023-04-09T12:09:07;98983.06;;;17.73;50.17
39487;BME280;25173;50.430;18.926;2023-04-09T12:12:08;98980.59;;;17.90;50.00
39487;BME280;25173;50.430;18.926;2023-04-09T12:18:20;98981.44;;;18.04;48.50
39487;BME280;25173;50.430;18.926;2023-04-09T12:21:24;98981.66;;;18.08;48.24
39487;BME280;25173;50.430;18.926;2023-04-09T12:24:26;98982.91;;;18.15;48.18
39487;BME280;25173;50.430;18.926;2023-04-09T12:27:28;98980.47;;;18.28;48.23
39487;BME280;25173;50.430;18.926;2023-04-09T12:30:29;98979.66;;;18.41;47.65
39487;BME280;25173;50.430;18.926;2023-04-09T12:33:29;98983.34;;;18.50;47.46
39487;BME280;25173;50.430;18.926;2023-04-09T12:36:33;98978.72;;;18.45;46.52
39487;BME280;25173;50.430;18.926;2023-04-09T12:39:34;98974.03;;;18.32;46.55
39487;BME280;25173;50.430;18.926;2023-04-09T12:42:38;98982.94;;;18.43;46.85
39487;BME280;25173;50.430;18.926;2023-04-09T12:45:38;98973.28;;;18.59;46.98
39487;BME280;25173;50.430;18.926;2023-04-09T12:48:39;98964.88;;;18.64;46.40
39487;BME280;25173;50.430;18.926;2023-04-09T12:51:39;98972.13;;;18.60;45.34
39487;BME280;25173;50.430;18.926;2023-04-09T12:54:41;98968.44;;;18.51;45.60
39487;BME280;25173;50.430;18.926;2023-04-09T12:57:44;98956.59;;;18.64;46.13
39487;BME280;25173;50.430;18.926;2023-04-09T13:00:46;98964.97;;;18.86;45.83
39487;BME280;25173;50.430;18.926;2023-04-09T13:03:47;98961.06;;;19.01;45.57
39487;BME280;25173;50.430;18.926;2023-04-09T13:06:48;98960.69;;;18.80;45.44
39487;BME280;25173;50.430;18.926;2023-04-09T13:09:49;98955.88;;;18.45;45.42
39487;BME280;25173;50.430;18.926;2023-04-09T13:12:50;98959.22;;;18.14;46.44
39487;BME280;25173;50.430;18.926;2023-04-09T13:15:50;98962.84;;;17.96;47.19
39487;BME280;25173;50.430;18.926;2023-04-09T13:18:51;98964.41;;;17.70;47.47
39487;BME280;25173;50.430;18.926;2023-04-09T13:21:52;98961.13;;;17.30;48.03
39487;BME280;25173;50.430;18.926;2023-04-09T13:24:52;98957.47;;;16.97;48.30
39487;BME280;25173;50.430;18.926;2023-04-09T13:27:53;98950.44;;;16.67;48.86
39487;BME280;25173;50.430;18.926;2023-04-09T13:30:54;98957.44;;;16.55;49.43
39487;BME280;25173;50.430;18.926;2023-04-09T13:33:54;98955.06;;;16.72;49.74
39487;BME280;25173;50.430;18.926;2023-04-09T13:36:55;98954.72;;;16.79;49.67
39487;BME280;25173;50.430;18.926;2023-04-09T13:39:55;98951.50;;;16.90;49.50
39487;BME280;25173;50.430;18.926;2023-04-09T13:42:56;98955.25;;;16.81;49.19
39487;BME280;25173;50.430;18.926;2023-04-09T13:45:57;98948.03;;;16.85;49.03
39487;BME280;25173;50.430;18.926;2023-04-09T13:48:58;98948.19;;;16.93;49.11
39487;BME280;25173;50.430;18.926;2023-04-09T13:51:58;98947.66;;;16.91;48.69
39487;BME280;25173;50.430;18.926;2023-04-09T13:54:59;98946.66;;;16.82;48.35
39487;BME280;25173;50.430;18.926;2023-04-09T13:57:59;98947.00;;;16.81;48.73
39487;BME280;25173;50.430;18.926;2023-04-09T14:01:00;98941.16;;;16.82;48.83
39487;BME280;25173;50.430;18.926;2023-04-09T14:04:01;98938.22;;;17.16;48.67
39487;BME280;25173;50.430;18.926;2023-04-09T14:07:01;98938.19;;;17.35;48.64
39487;BME280;25173;50.430;18.926;2023-04-09T14:10:02;98935.59;;;17.43;48.16
39487;BME280;25173;50.430;18.926;2023-04-09T14:13:02;98941.13;;;17.62;48.35
39487;BME280;25173;50.430;18.926;2023-04-09T14:16:06;98939.59;;;17.70;48.44
39487;BME280;25173;50.430;18.926;2023-04-09T14:19:07;98940.41;;;17.52;48.54
39487;BME280;25173;50.430;18.926;2023-04-09T14:22:09;98931.84;;;17.02;48.27
39487;BME280;25173;50.430;18.926;2023-04-09T14:25:10;98926.50;;;16.68;49.07
39487;BME280;25173;50.430;18.926;2023-04-09T14:28:12;98932.81;;;16.68;49.66
39487;BME280;25173;50.430;18.926;2023-04-09T14:31:13;98928.84;;;16.80;49.45
39487;BME280;25173;50.430;18.926;2023-04-09T14:34:13;98930.03;;;16.74;49.28
39487;BME280;25173;50.430;18.926;2023-04-09T14:37:14;98928.47;;;16.86;49.29
39487;BME280;25173;50.430;18.926;2023-04-09T14:40:15;98930.25;;;16.77;48.99
39487;BME280;25173;50.430;18.926;2023-04-09T14:43:16;98932.06;;;16.39;48.93
39487;BME280;25173;50.430;18.926;2023-04-09T14:46:16;98930.13;;;16.16;49.56
39487;BME280;25173;50.430;18.926;2023-04-09T14:49:17;98933.47;;;16.13;49.70
39487;BME280;25173;50.430;18.926;2023-04-09T14:52:18;98927.31;;;15.97;49.67
39487;BME280;25173;50.430;18.926;2023-04-09T14:55:18;98926.41;;;15.78;50.19
39487;BME280;25173;50.430;18.926;2023-04-09T14:58:19;98930.28;;;15.77;50.50
39487;BME280;25173;50.430;18.926;2023-04-09T15:01:20;98941.47;;;15.85;50.34
39487;BME280;25173;50.430;18.926;2023-04-09T15:04:20;98947.72;;;15.91;50.51
39487;BME280;25173;50.430;18.926;2023-04-09T15:07:21;98950.22;;;15.87;50.53
39487;BME280;25173;50.430;18.926;2023-04-09T15:10:21;98959.19;;;15.64;50.82
39487;BME280;25173;50.430;18.926;2023-04-09T15:13:22;98950.59;;;15.37;51.93
39487;BME280;25173;50.430;18.926;2023-04-09T15:16:24;98955.66;;;15.20;52.37
39487;BME280;25173;50.430;18.926;2023-04-09T15:19:26;98954.75;;;14.95;52.92
39487;BME280;25173;50.430;18.926;2023-04-09T15:22:26;98948.31;;;14.61;53.75
39487;BME280;25173;50.430;18.926;2023-04-09T15:25:27;98939.34;;;14.35;55.82
39487;BME280;25173;50.430;18.926;2023-04-09T15:28:27;98942.47;;;13.98;57.10
39487;BME280;25173;50.430;18.926;2023-04-09T15:31:28;98937.03;;;13.68;57.71
39487;BME280;25173;50.430;18.926;2023-04-09T15:34:29;98940.31;;;13.44;58.35
39487;BME280;25173;50.430;18.926;2023-04-09T15:37:30;98937.84;;;13.17;58.55
39487;BME280;25173;50.430;18.926;2023-04-09T15:40:31;98936.69;;;12.88;58.98
39487;BME280;25173;50.430;18.926;2023-04-09T15:43:31;98928.94;;;12.60;59.68
39487;BME280;25173;50.430;18.926;2023-04-09T15:46:32;98927.47;;;12.32;60.54
39487;BME280;25173;50.430;18.926;2023-04-09T15:49:34;98922.44;;;12.09;61.29
39487;BME280;25173;50.430;18.926;2023-04-09T15:52:36;98915.78;;;11.94;61.82
39487;BME280;25173;50.430;18.926;2023-04-09T15:55:36;98927.53;;;11.90;62.61
39487;BME280;25173;50.430;18.926;2023-04-09T15:58:37;98924.53;;;11.91;62.67
39487;BME280;25173;50.430;18.926;2023-04-09T16:01:37;98922.06;;;11.90;63.21
39487;BME280;25173;50.430;18.926;2023-04-09T16:04:38;98929.44;;;11.89;63.41
39487;BME280;25173;50.430;18.926;2023-04-09T16:07:39;98931.41;;;11.99;63.65
39487;BME280;25173;50.430;18.926;2023-04-09T16:10:40;98933.59;;;12.02;63.66